Time;durP1;ratioP1;P1;durP2;ratioP2;P2;SDS_P1;SDS_P2;PMS_P1;PMS_P2;Temp;Humidity;BMP_temperature;BMP_pressure;BME280_temperature;BME280_humidity;BME280_pressure;Samples;Min_cycle;Max_cycle;Signal;HPM_P1;HPM_P2
2022/01/30 00:02:01;;;;;;;24.13;4.70;;;;;;;6.43;73.45;102527.72;5072172;28;20035;-69
2022/01/30 00:04:26;;;;;;;27.38;5.22;;;;;;;6.37;73.62;102532.75;5073246;28;20032;-69
2022/01/30 00:06:51;;;;;;;29.65;5.63;;;;;;;6.39;73.04;102540.66;5074411;28;20032;-69
2022/01/30 00:09:20;;;;;;;29.60;5.57;;;;;;;6.40;73.57;102547.69;5074674;28;20037;-68
2022/01/30 00:11:50;;;;;;;29.90;5.35;;;;;;;6.32;73.72;102543.09;5074477;28;20135;-69
2022/01/30 00:14:18;;;;;;;29.42;5.20;;;;;;;6.29;73.86;102556.03;5074633;28;20028;-69
2022/01/30 00:16:43;;;;;;;28.58;6.50;;;;;;;6.32;72.71;102555.72;5074245;28;20111;-69
2022/01/30 00:19:21;;;;;;;29.13;5.53;;;;;;;6.30;73.50;102557.72;5074434;28;20445;-69
2022/01/30 00:21:52;;;;;;;29.65;5.00;;;;;;;6.30;73.08;102546.97;5073860;28;20032;-69
2022/01/30 00:24:26;;;;;;;31.27;5.35;;;;;;;6.25;73.42;102547.44;5074345;28;20037;-69
2022/01/30 00:26:51;;;;;;;23.52;5.05;;;;;;;6.26;73.14;102554.47;5074083;28;20032;-69
2022/01/30 00:29:16;;;;;;;34.08;5.55;;;;;;;6.24;72.80;102561.03;5074347;28;20115;-69
2022/01/30 00:31:42;;;;;;;30.13;5.68;;;;;;;6.19;72.52;102556.94;5074070;28;20425;-69
2022/01/30 00:34:08;;;;;;;26.00;5.00;;;;;;;6.17;72.92;102566.16;5074203;28;20025;-69
2022/01/30 00:36:33;;;;;;;33.70;5.93;;;;;;;6.17;73.15;102571.53;5072576;28;20021;-69
2022/01/30 00:38:59;;;;;;;29.35;5.55;;;;;;;6.13;73.46;102565.63;5072764;28;20028;-69
2022/01/30 00:41:25;;;;;;;26.25;5.38;;;;;;;6.09;73.15;102572.31;5073917;28;20032;-69
2022/01/30 00:43:51;;;;;;;26.10;5.53;;;;;;;6.02;73.67;102566.72;5073757;28;20043;-69
2022/01/30 00:46:16;;;;;;;30.80;5.07;;;;;;;6.06;72.94;102561.88;5072653;28;20214;-69
2022/01/30 00:48:41;;;;;;;34.25;5.93;;;;;;;6.07;73.48;102562.69;5073874;28;20034;-70
2022/01/30 00:51:07;;;;;;;26.75;4.63;;;;;;;6.05;73.10;102565.53;5073392;28;20036;-69
2022/01/30 00:53:32;;;;;;;27.20;5.00;;;;;;;6.01;73.76;102566.88;5073537;28;20032;-69
2022/01/30 00:55:58;;;;;;;32.90;5.32;;;;;;;6.00;73.60;102573.22;5073943;28;20109;-70
2022/01/30 00:58:23;;;;;;;29.10;5.10;;;;;;;6.02;73.57;102576.59;5073443;28;20080;-70
2022/01/30 01:00:48;;;;;;;29.35;5.45;;;;;;;5.96;73.22;102569.13;5069585;28;20298;-69
2022/01/30 01:03:13;;;;;;;28.42;5.47;;;;;;;5.94;73.38;102576.50;5073615;28;20086;-69
2022/01/30 01:05:39;;;;;;;34.40;6.00;;;;;;;5.89;73.59;102587.69;5073304;28;20113;-69
2022/01/30 01:20:46;;;;;;;31.35;5.65;;;;;;;5.84;73.70;102581.91;5051534;28;20083;-70
2022/01/30 01:25:09;;;;;;;26.85;6.05;;;;;;;5.80;74.87;102593.97;5049835;28;20368;-69
2022/01/30 01:27:34;;;;;;;31.92;6.32;;;;;;;5.78;74.86;102602.19;5072938;28;20036;-69
2022/01/30 01:30:00;;;;;;;31.00;5.95;;;;;;;5.74;74.70;102595.41;5073131;28;20144;-70
2022/01/30 01:32:25;;;;;;;32.22;5.95;;;;;;;5.72;75.40;102593.88;5072786;28;20035;-69
2022/01/30 01:34:50;;;;;;;31.38;6.00;;;;;;;5.69;75.35;102600.38;5071496;28;20032;-70
2022/01/30 01:37:15;;;;;;;30.30;5.78;;;;;;;5.69;75.10;102603.06;5071701;28;20059;-68
2022/01/30 01:39:41;;;;;;;36.45;6.05;;;;;;;5.65;74.89;102604.38;5071534;28;20387;-70
2022/01/30 01:42:06;;;;;;;31.45;4.85;;;;;;;5.66;74.97;102608.72;5072706;28;20332;-69
2022/01/30 01:44:41;;;;;;;33.80;5.57;;;;;;;5.68;75.16;102607.59;5073127;28;20166;-69
2022/01/30 01:47:08;;;;;;;23.08;5.82;;;;;;;5.68;75.89;102601.38;5072909;28;20115;-70
2022/01/30 01:49:34;;;;;;;29.75;5.40;;;;;;;5.66;75.02;102604.22;5072486;28;20029;-70
2022/01/30 01:52:18;;;;;;;26.60;5.15;;;;;;;5.63;75.35;102611.72;5071496;28;20376;-70
2022/01/30 01:54:55;;;;;;;28.83;5.60;;;;;;;5.63;75.33;102614.41;5072514;28;20036;-68
2022/01/30 01:57:21;;;;;;;26.98;4.68;;;;;;;5.58;75.12;102619.38;5072663;28;20353;-69
2022/01/30 01:59:47;;;;;;;32.20;5.25;;;;;;;5.55;75.27;102611.63;5072480;28;20052;-70
2022/01/30 02:02:12;;;;;;;27.42;5.40;;;;;;;5.46;75.49;102618.72;5069945;28;20036;-69
2022/01/30 02:04:40;;;;;;;33.60;5.13;;;;;;;5.45;75.28;102611.66;5070627;28;20364;-68
2022/01/30 02:07:47;;;;;;;30.15;7.05;;;;;;;5.38;75.54;102608.72;5072565;28;20040;-69
2022/01/30 02:10:06;;;;;;;34.38;5.40;;;;;;;5.39;75.59;102607.75;5072122;28;20040;-69
2022/01/30 02:12:55;;;;;;;24.58;5.05;;;;;;;5.32;75.91;102603.94;5072493;28;20430;-69
2022/01/30 02:26:00;;;;;;;30.23;5.22;;;;;;;5.27;77.02;102582.91;5072176;28;20098;-69
2022/01/30 02:28:28;;;;;;;29.55;5.15;;;;;;;5.26;76.52;102589.25;5072378;28;20403;-69
2022/01/30 02:31:26;;;;;;;32.83;5.40;;;;;;;5.23;77.23;102594.09;5071801;28;20499;-69
2022/01/30 02:33:45;;;;;;;30.65;5.47;;;;;;;5.25;77.06;102600.97;5069965;28;20040;-69
2022/01/30 02:36:10;;;;;;;36.10;5.70;;;;;;;5.24;77.19;102599.31;5072435;28;20029;-70
2022/01/30 02:38:35;;;;;;;33.63;5.88;;;;;;;5.26;76.79;102593.81;5072468;28;20056;-70
2022/01/30 02:41:01;;;;;;;33.70;5.88;;;;;;;5.27;76.26;102592.81;5072125;28;20095;-69
2022/01/30 02:43:34;;;;;;;30.63;4.82;;;;;;;5.23;76.62;102584.19;5072257;28;20044;-69
2022/01/30 02:46:11;;;;;;;26.70;5.03;;;;;;;5.16;77.18;102588.44;5071917;28;20067;-69
2022/01/30 02:48:50;;;;;;;32.75;5.45;;;;;;;5.14;77.63;102593.97;5071872;28;20150;-69
2022/01/30 02:51:18;;;;;;;35.70;5.20;;;;;;;5.11;77.49;102588.06;5072179;28;20119;-69
2022/01/30 02:53:46;;;;;;;28.30;5.30;;;;;;;5.06;77.55;102585.81;5071824;28;20028;-70
2022/01/30 02:56:12;;;;;;;26.63;5.03;;;;;;;5.02;77.56;102587.09;5072102;28;20059;-69
2022/01/30 02:58:37;;;;;;;35.72;4.97;;;;;;;4.93;77.78;102602.22;5071692;28;20119;-69
2022/01/30 03:01:02;;;;;;;31.63;5.25;;;;;;;4.92;77.77;102599.66;5069508;28;20075;-69
2022/01/30 03:03:28;;;;;;;31.13;6.03;;;;;;;4.94;77.40;102600.41;5071090;28;20036;-68
2022/01/30 03:05:53;;;;;;;29.33;4.95;;;;;;;4.86;77.50;102606.47;5071778;28;20025;-69
2022/01/30 03:08:18;;;;;;;28.48;5.18;;;;;;;4.85;77.54;102620.03;5072018;28;20353;-69
2022/01/30 03:10:44;;;;;;;28.90;5.35;;;;;;;4.76;77.95;102617.22;5071677;28;20036;-69
2022/01/30 03:13:09;;;;;;;29.27;4.85;;;;;;;4.75;77.74;102615.50;5071982;28;20032;-68
2022/01/30 03:15:35;;;;;;;25.00;4.55;;;;;;;4.79;77.67;102619.59;5074903;28;20528;-69
2022/01/30 03:18:00;;;;;;;27.13;4.65;;;;;;;4.77;78.12;102616.22;5075391;28;20025;-69
2022/01/30 03:20:26;;;;;;;25.33;4.90;;;;;;;4.82;77.79;102623.84;5074298;28;20029;-69
2022/01/30 03:22:51;;;;;;;31.60;5.15;;;;;;;4.77;78.14;102635.00;5075252;28;20024;-68
2022/01/30 03:25:16;;;;;;;22.10;4.30;;;;;;;4.77;78.66;102628.78;5075579;28;20040;-69
2022/01/30 03:27:44;;;;;;;29.73;5.28;;;;;;;4.79;78.43;102637.53;5075316;28;20063;-68
2022/01/30 03:30:18;;;;;;;30.40;5.32;;;;;;;4.76;78.81;102633.31;5075449;28;20024;-68
2022/01/30 03:32:44;;;;;;;29.27;5.18;;;;;;;4.77;78.97;102629.63;5073887;28;20028;-69
2022/01/30 03:35:09;;;;;;;32.00;4.68;;;;;;;4.81;78.88;102634.72;5075598;28;20029;-69
2022/01/30 03:37:34;;;;;;;34.45;5.60;;;;;;;4.82;79.35;102644.47;5075323;28;20025;-69
2022/01/30 03:39:59;;;;;;;30.60;4.70;;;;;;;4.85;78.90;102662.97;5073741;28;20032;-69
2022/01/30 03:42:25;;;;;;;29.73;5.60;;;;;;;4.85;79.04;102662.97;5075146;28;20468;-68
2022/01/30 03:44:50;;;;;;;30.98;5.20;;;;;;;4.86;79.31;102664.63;5074658;28;20024;-69
2022/01/30 03:47:15;;;;;;;31.30;5.45;;;;;;;4.88;78.92;102671.56;5075149;28;20025;-69
2022/01/30 03:49:41;;;;;;;25.08;4.60;;;;;;;4.85;79.52;102674.53;5074717;28;20380;-69
2022/01/30 03:52:07;;;;;;;30.05;5.32;;;;;;;4.87;79.26;102682.44;5075031;28;20391;-69
2022/01/30 03:54:33;;;;;;;29.70;4.88;;;;;;;4.90;79.33;102682.97;5075001;28;20479;-69
2022/01/30 03:56:58;;;;;;;34.92;5.57;;;;;;;4.90;79.25;102674.09;5074703;28;20039;-68
2022/01/30 03:59:24;;;;;;;34.55;5.45;;;;;;;4.87;79.63;102679.75;5074468;28;20044;-69
2022/01/30 04:01:49;;;;;;;29.70;5.43;;;;;;;4.84;79.41;102677.34;5072021;28;20025;-68
2022/01/30 04:04:14;;;;;;;33.85;5.72;;;;;;;4.89;79.10;102675.94;5073309;28;20039;-68
2022/01/30 04:06:40;;;;;;;28.55;5.68;;;;;;;4.87;79.47;102677.91;5073453;28;20077;-69
2022/01/30 04:09:05;;;;;;;28.23;5.13;;;;;;;4.89;79.31;102683.13;5074268;28;20384;-69
2022/01/30 04:11:30;;;;;;;32.35;5.15;;;;;;;4.89;79.56;102683.13;5073340;28;20024;-69
2022/01/30 04:13:56;;;;;;;27.70;5.07;;;;;;;4.89;79.53;102692.03;5074138;28;20077;-69
2022/01/30 04:16:21;;;;;;;31.25;5.82;;;;;;;4.89;79.50;102693.84;5074586;28;20090;-68
2022/01/30 04:18:47;;;;;;;29.05;5.47;;;;;;;4.91;79.45;102691.91;5074261;28;20410;-69
2022/01/30 04:21:12;;;;;;;30.48;5.57;;;;;;;4.95;79.78;102699.50;5074431;28;20021;-69
2022/01/30 04:23:39;;;;;;;30.23;5.20;;;;;;;4.99;79.82;102691.19;5074391;28;20056;-69
2022/01/30 04:26:05;;;;;;;27.42;5.10;;;;;;;5.01;79.09;102700.75;5073625;28;20120;-69
2022/01/30 04:28:30;;;;;;;29.52;5.00;;;;;;;5.01;78.91;102692.72;5074080;28;20048;-69
2022/01/30 04:30:56;;;;;;;28.80;5.03;;;;;;;5.02;79.40;102701.63;5074071;28;20491;-69
2022/01/30 04:33:21;;;;;;;33.78;6.10;;;;;;;5.03;79.34;102700.63;5074214;28;20029;-69
2022/01/30 04:35:47;;;;;;;29.35;4.93;;;;;;;5.05;79.18;102704.84;5073975;28;20043;-68
2022/01/30 04:38:21;;;;;;;27.67;4.53;;;;;;;5.07;78.33;102699.34;5074173;28;20020;-70
2022/01/30 04:55:03;;;;;;;32.85;5.15;;;;;;;5.12;78.17;102722.09;5073821;28;20457;-69
2022/01/30 04:59:50;;;;;;;28.02;4.97;;;;;;;5.07;78.25;102718.13;5073805;28;20286;-69
2022/01/30 05:04:55;;;;;;;28.33;5.07;;;;;;;5.06;77.78;102729.88;5073435;28;20041;-68
2022/01/30 05:09:46;;;;;;;24.73;4.72;;;;;;;5.00;78.11;102735.78;5073264;28;20545;-69
2022/01/30 05:12:13;;;;;;;23.08;4.78;;;;;;;4.97;77.95;102736.94;5073529;28;20135;-69
2022/01/30 05:14:38;;;;;;;27.58;4.70;;;;;;;4.96;78.00;102743.28;5073407;28;20036;-69
2022/01/30 05:17:05;;;;;;;26.65;4.20;;;;;;;4.89;77.93;102744.81;5073159;28;20118;-69
2022/01/30 05:19:31;;;;;;;26.40;4.65;;;;;;;4.87;78.08;102753.00;5072960;28;20032;-69
2022/01/30 05:21:57;;;;;;;29.30;5.60;;;;;;;4.83;77.78;102740.88;5072935;28;20082;-70
2022/01/30 05:24:22;;;;;;;22.58;4.68;;;;;;;4.81;77.98;102753.56;5073487;28;20040;-68
2022/01/30 05:26:48;;;;;;;30.02;4.63;;;;;;;4.83;78.01;102746.25;5072950;28;20036;-69
2022/01/30 05:29:14;;;;;;;31.17;4.68;;;;;;;4.75;78.65;102741.56;5073165;28;20024;-69
2022/01/30 05:31:41;;;;;;;33.47;5.35;;;;;;;4.70;78.28;102743.81;5072992;28;20119;-69
2022/01/30 05:34:07;;;;;;;29.42;5.57;;;;;;;4.64;78.40;102747.06;5072830;28;20036;-68
2022/01/30 05:36:33;;;;;;;31.33;5.38;;;;;;;4.62;78.50;102741.00;5073019;28;20035;-69
2022/01/30 05:39:00;;;;;;;29.67;4.30;;;;;;;4.62;78.59;102749.06;5071902;28;20025;-69
2022/01/30 05:41:26;;;;;;;25.23;4.63;;;;;;;4.58;78.47;102743.09;5072931;28;20033;-69
2022/01/30 05:43:56;;;;;;;25.02;4.80;;;;;;;4.56;78.25;102744.22;5072688;28;20039;-68
2022/01/30 05:46:32;;;;;;;22.52;4.32;;;;;;;4.56;78.27;102753.13;5072847;28;20069;-69
2022/01/30 05:48:57;;;;;;;25.15;4.78;;;;;;;4.53;78.23;102758.78;5072563;28;20120;-68
2022/01/30 05:51:22;;;;;;;22.10;4.40;;;;;;;4.49;78.18;102759.19;5072819;28;20519;-69
2022/01/30 05:53:48;;;;;;;23.98;4.10;;;;;;;4.52;77.61;102761.59;5072897;28;20029;-69
2022/01/30 05:56:13;;;;;;;24.75;5.03;;;;;;;4.49;77.83;102762.69;5072782;28;20460;-70
2022/01/30 05:58:40;;;;;;;25.08;4.57;;;;;;;4.48;77.74;102758.31;5072604;28;20049;-69
2022/01/30 06:01:05;;;;;;;23.45;4.40;;;;;;;4.43;77.63;102766.78;5070075;28;20452;-69
2022/01/30 06:03:30;;;;;;;26.85;4.35;;;;;;;4.46;77.26;102762.16;5072684;28;20027;-69
2022/01/30 06:05:56;;;;;;;26.63;3.95;;;;;;;4.43;77.50;102771.28;5071063;28;20031;-68
2022/01/30 06:11:14;;;;;;;24.60;4.88;;;;;;;4.38;77.46;102771.72;5055953;28;20209;-69
2022/01/30 06:13:40;;;;;;;27.25;4.60;;;;;;;4.37;78.07;102778.03;5072805;28;20032;-69
2022/01/30 06:16:05;;;;;;;17.73;3.50;;;;;;;4.36;77.80;102780.88;5072047;28;20039;-69
2022/01/30 06:18:31;;;;;;;13.65;3.65;;;;;;;4.37;77.43;102778.03;5072202;28;20036;-69
2022/01/30 06:20:56;;;;;;;17.90;3.60;;;;;;;4.37;77.79;102778.03;5070594;28;20036;-69
2022/01/30 06:23:26;;;;;;;21.90;3.78;;;;;;;4.36;77.64;102771.00;5072249;28;20037;-69
2022/01/30 06:25:52;;;;;;;22.30;4.13;;;;;;;4.40;77.15;102780.44;5071996;28;20029;-69
2022/01/30 06:28:17;;;;;;;26.20;3.83;;;;;;;4.39;77.93;102776.09;5072763;28;20119;-70
2022/01/30 06:30:43;;;;;;;22.77;4.30;;;;;;;4.40;77.76;102767.03;5072420;28;20054;-69
2022/01/30 06:33:08;;;;;;;23.92;4.28;;;;;;;4.44;77.44;102771.16;5071893;28;20097;-68
2022/01/30 06:35:33;;;;;;;20.02;3.63;;;;;;;4.57;76.63;102773.56;5072344;28;20027;-69
2022/01/30 06:38:00;;;;;;;20.67;3.60;;;;;;;4.56;76.66;102782.63;5072068;28;20055;-69
2022/01/30 06:40:26;;;;;;;25.50;4.28;;;;;;;4.60;76.32;102773.31;5072165;28;20025;-68
2022/01/30 06:42:51;;;;;;;27.52;4.50;;;;;;;4.63;76.08;102782.91;5072100;28;20349;-70
2022/01/30 06:45:19;;;;;;;21.25;3.92;;;;;;;4.72;75.79;102787.44;5072342;28;20040;-69
2022/01/30 06:47:44;;;;;;;19.33;3.45;;;;;;;4.68;75.97;102780.69;5071032;28;20115;-69
2022/01/30 06:50:11;;;;;;;19.58;3.25;;;;;;;4.69;76.49;102782.34;5074331;28;20111;-68
2022/01/30 06:52:37;;;;;;;23.70;4.28;;;;;;;4.70;76.34;102791.25;5076128;28;20468;-70
2022/01/30 06:55:04;;;;;;;21.10;3.13;;;;;;;4.72;76.13;102795.47;5075882;28;20107;-69
2022/01/30 06:57:29;;;;;;;21.88;3.72;;;;;;;4.66;77.11;102804.09;5076266;28;20490;-69
2022/01/30 06:59:54;;;;;;;24.02;4.18;;;;;;;4.65;77.25;102790.81;5075442;28;20045;-68
2022/01/30 07:02:19;;;;;;;22.00;3.90;;;;;;;4.62;77.52;102797.31;5073364;28;20028;-69
2022/01/30 07:04:45;;;;;;;24.63;4.00;;;;;;;4.60;77.39;102800.13;5075914;28;20036;-69
2022/01/30 07:07:10;;;;;;;22.15;3.83;;;;;;;4.58;77.47;102809.31;5075352;28;20486;-69
2022/01/30 07:09:35;;;;;;;25.77;5.60;;;;;;;4.57;77.10;102811.09;5075830;28;20086;-69
2022/01/30 07:12:01;;;;;;;25.05;4.53;;;;;;;4.55;77.35;102818.44;5075522;28;20036;-70
2022/01/30 07:14:26;;;;;;;27.08;5.00;;;;;;;4.53;77.69;102812.38;5075790;28;20054;-70
2022/01/30 07:16:52;;;;;;;22.70;4.32;;;;;;;4.51;77.81;102816.19;5074349;28;20387;-69
2022/01/30 07:19:17;;;;;;;25.20;4.60;;;;;;;4.49;77.74;102815.47;5075389;28;20104;-68
2022/01/30 07:21:42;;;;;;;27.13;5.15;;;;;;;4.49;78.02;102816.31;5074235;28;20066;-69
2022/01/30 07:24:08;;;;;;;19.48;4.32;;;;;;;4.48;77.41;102813.78;5075316;28;20028;-70
2022/01/30 07:26:33;;;;;;;23.73;4.88;;;;;;;4.47;77.75;102823.66;5075510;28;20422;-68
2022/01/30 07:29:00;;;;;;;22.17;4.45;;;;;;;4.42;77.73;102823.19;5075244;28;20036;-69
2022/01/30 07:31:25;;;;;;;22.85;4.13;;;;;;;4.40;77.35;102820.66;5074966;28;20036;-68
2022/01/30 07:33:50;;;;;;;26.83;4.28;;;;;;;4.41;77.05;102826.91;5074815;28;20028;-70
2022/01/30 07:36:16;;;;;;;24.95;4.25;;;;;;;4.36;77.31;102838.03;5075382;28;20024;-70
2022/01/30 07:38:41;;;;;;;26.85;4.30;;;;;;;4.31;77.32;102842.06;5075081;28;20240;-69
2022/01/30 07:41:07;;;;;;;22.02;4.47;;;;;;;4.32;77.61;102843.75;5074722;28;20033;-69
2022/01/30 07:43:32;;;;;;;22.50;4.20;;;;;;;4.30;77.65;102851.94;5072626;28;20468;-69
2022/01/30 07:45:58;;;;;;;24.80;3.90;;;;;;;4.31;77.43;102855.47;5074820;28;20024;-69
2022/01/30 07:48:23;;;;;;;21.27;3.72;;;;;;;4.34;76.90;102861.41;5074663;28;20102;-69
2022/01/30 07:50:48;;;;;;;25.77;4.05;;;;;;;4.33;77.29;102861.53;5107104;28;20049;-73
2022/01/30 07:53:14;;;;;;;26.77;4.22;;;;;;;4.32;77.12;102859.84;5074597;28;20464;-71
2022/01/30 07:55:39;;;;;;;21.80;4.05;;;;;;;4.31;77.19;102859.00;5073519;28;20029;-74
2022/01/30 07:58:06;;;;;;;22.60;3.85;;;;;;;4.29;77.42;102852.94;5106568;28;20032;-75
2022/01/30 08:00:31;;;;;;;19.38;4.35;;;;;;;4.26;77.35;102859.41;5070410;28;20037;-74
2022/01/30 08:02:56;;;;;;;20.08;4.03;;;;;;;4.29;77.32;102854.75;5073559;28;20039;-73
2022/01/30 08:05:22;;;;;;;19.52;4.00;;;;;;;4.28;77.73;102859.28;5074475;28;20052;-73
2022/01/30 08:07:47;;;;;;;19.58;3.85;;;;;;;4.28;76.82;102853.06;5074248;28;20032;-75
2022/01/30 08:10:12;;;;;;;29.48;4.75;;;;;;;4.29;77.19;102855.63;5073913;28;20060;-72
2022/01/30 08:12:38;;;;;;;20.95;4.13;;;;;;;4.31;77.55;102861.69;5074219;28;20052;-73
2022/01/30 08:15:04;;;;;;;24.23;3.83;;;;;;;4.32;76.86;102866.06;5106622;28;20029;-76
2022/01/30 08:17:32;;;;;;;22.58;3.83;;;;;;;4.33;76.94;102866.91;5074262;28;20111;-76
2022/01/30 08:19:58;;;;;;;22.60;3.83;;;;;;;4.33;77.08;102864.22;5073932;28;20033;-79
2022/01/30 08:22:23;;;;;;;15.90;3.50;;;;;;;4.35;77.24;102870.28;5106310;28;20035;-74
2022/01/30 08:24:48;;;;;;;20.50;3.83;;;;;;;4.36;76.78;102877.34;5073995;28;20044;-71
2022/01/30 08:27:13;;;;;;;23.40;4.03;;;;;;;4.38;76.79;102872.72;5073382;28;20372;-76
2022/01/30 08:29:39;;;;;;;28.55;4.70;;;;;;;4.42;76.23;102875.00;5072380;28;20029;-77
2022/01/30 08:32:11;;;;;;;18.90;3.30;;;;;;;4.43;76.51;102874.00;5073581;28;20036;-73
2022/01/30 08:34:36;;;;;;;17.30;3.33;;;;;;;4.51;77.03;102883.22;5074283;28;20388;-72
2022/01/30 08:37:01;;;;;;;22.50;4.03;;;;;;;4.49;76.01;102882.50;5073196;28;20116;-73
2022/01/30 08:39:26;;;;;;;23.05;4.10;;;;;;;4.53;76.45;102881.22;5073034;28;20028;-73
2022/01/30 08:41:52;;;;;;;26.33;4.43;;;;;;;4.56;76.32;102879.16;5073264;28;20052;-72
2022/01/30 08:44:17;;;;;;;24.00;4.20;;;;;;;4.61;75.25;102876.91;5073267;28;20879;-77
2022/01/30 08:46:42;;;;;;;22.52;3.60;;;;;;;4.69;75.69;102876.22;5105856;28;20028;-71
2022/01/30 08:49:08;;;;;;;28.00;4.53;;;;;;;4.74;74.96;102874.00;5073072;28;20504;-73
2022/01/30 08:51:33;;;;;;;23.23;4.28;;;;;;;4.78;75.25;102885.28;5072048;28;20037;-71
2022/01/30 08:53:58;;;;;;;24.88;4.22;;;;;;;4.78;75.32;102878.06;5073519;28;20115;-71
2022/01/30 08:56:23;;;;;;;25.48;4.13;;;;;;;4.81;74.77;102874.28;5073296;28;20388;-71
2022/01/30 08:58:49;;;;;;;21.73;4.38;;;;;;;4.78;75.61;102878.06;5073502;28;20044;-71
2022/01/30 09:01:15;;;;;;;21.75;4.53;;;;;;;4.81;75.34;102876.13;5070924;28;20033;-71
2022/01/30 09:03:42;;;;;;;26.58;4.35;;;;;;;4.85;75.24;102877.56;5073674;28;20025;-71
2022/01/30 09:06:08;;;;;;;24.20;4.13;;;;;;;4.85;75.14;102883.75;5073634;28;20390;-71
2022/01/30 09:08:33;;;;;;;28.42;5.00;;;;;;;4.89;74.08;102884.31;5073570;28;20034;-71
2022/01/30 09:10:58;;;;;;;21.52;4.50;;;;;;;4.93;73.97;102891.13;5073235;28;20081;-71
2022/01/30 09:13:24;;;;;;;25.33;3.88;;;;;;;4.98;74.16;102894.22;5071732;28;20054;-71
2022/01/30 09:15:56;;;;;;;20.10;3.95;;;;;;;4.98;73.51;102899.59;5073450;28;20474;-71
2022/01/30 09:18:21;;;;;;;22.98;4.50;;;;;;;4.99;73.78;102895.94;5071888;28;20028;-71
2022/01/30 09:20:46;;;;;;;21.02;3.72;;;;;;;5.05;73.97;102913.31;5073252;28;20028;-71
2022/01/30 09:23:13;;;;;;;24.90;4.15;;;;;;;5.09;73.53;102918.28;5073295;28;20029;-71
2022/01/30 09:25:39;;;;;;;28.95;4.75;;;;;;;5.13;73.31;102925.06;5073328;28;20028;-71
2022/01/30 09:28:04;;;;;;;30.45;5.05;;;;;;;5.21;73.09;102915.47;5070813;28;20430;-71
2022/01/30 09:30:30;;;;;;;21.95;4.22;;;;;;;5.27;73.29;102914.94;5071648;28;20036;-71
2022/01/30 09:32:55;;;;;;;26.40;5.07;;;;;;;5.34;72.41;102916.06;5071834;28;20036;-76
2022/01/30 09:35:20;;;;;;;26.80;4.57;;;;;;;5.39;73.01;102913.81;5071902;28;20402;-73
2022/01/30 09:37:46;;;;;;;24.60;5.65;;;;;;;5.42;72.35;102915.34;5070464;28;20024;-74
2022/01/30 09:40:13;;;;;;;26.23;4.43;;;;;;;5.45;72.25;102923.13;5071561;28;20395;-72
2022/01/30 09:42:43;;;;;;;28.17;3.65;;;;;;;5.51;70.57;102927.97;5070032;28;20040;-73
2022/01/30 09:45:10;;;;;;;29.33;5.15;;;;;;;5.53;70.37;102933.19;5071713;28;20528;-72
2022/01/30 09:47:36;;;;;;;26.90;4.28;;;;;;;5.55;70.43;102939.25;5071923;28;20036;-73
2022/01/30 09:50:04;;;;;;;25.55;4.65;;;;;;;5.59;70.56;102940.69;5071159;28;20032;-72
2022/01/30 09:52:29;;;;;;;32.28;4.88;;;;;;;5.60;70.95;102932.50;5071964;28;20153;-73
2022/01/30 09:54:54;;;;;;;25.00;4.43;;;;;;;5.66;70.29;102942.66;5070689;28;20119;-73
2022/01/30 09:57:20;;;;;;;29.00;5.68;;;;;;;5.68;70.93;102948.72;5071271;28;20387;-72
2022/01/30 09:59:46;;;;;;;29.85;5.68;;;;;;;5.70;70.16;102935.16;5071365;28;20068;-73
2022/01/30 10:02:12;;;;;;;29.75;5.10;;;;;;;5.74;69.44;102944.66;5068065;28;20028;-79
2022/01/30 10:04:39;;;;;;;30.95;5.15;;;;;;;5.76;70.01;102942.66;5104222;28;20037;-75
2022/01/30 10:07:12;;;;;;;28.05;4.57;;;;;;;5.78;69.27;102947.88;5070962;28;20112;-75
2022/01/30 10:09:44;;;;;;;28.55;4.80;;;;;;;5.80;69.88;102953.97;5070891;28;20024;-75
2022/01/30 10:12:18;;;;;;;25.05;4.10;;;;;;;5.86;68.90;102959.63;5071086;28;20036;-73
2022/01/30 10:14:49;;;;;;;25.05;4.70;;;;;;;5.91;69.60;102971.78;5071849;28;20043;-72
2022/01/30 10:17:24;;;;;;;27.95;4.82;;;;;;;5.98;69.91;102972.97;5072423;28;20041;-72
2022/01/30 10:19:59;;;;;;;28.98;4.75;;;;;;;6.03;69.52;102968.00;5072605;28;20131;-71
2022/01/30 10:22:24;;;;;;;25.65;4.30;;;;;;;6.07;69.19;102973.94;5072269;28;20099;-71
2022/01/30 10:24:49;;;;;;;24.92;4.47;;;;;;;6.05;69.35;102963.31;5071716;28;20082;-71
2022/01/30 10:27:20;;;;;;;24.42;4.55;;;;;;;6.06;69.80;102970.41;5072279;28;20025;-72
2022/01/30 10:29:57;;;;;;;31.87;5.17;;;;;;;6.09;70.25;102974.66;5072185;28;20103;-72
2022/01/30 10:32:22;;;;;;;33.15;5.25;;;;;;;6.11;68.95;102968.13;5071936;28;20267;-71
2022/01/30 10:34:56;;;;;;;29.50;4.78;;;;;;;6.16;69.81;102976.63;5072368;28;20026;-72
2022/01/30 10:37:23;;;;;;;25.92;4.72;;;;;;;6.14;70.43;102965.13;5072157;28;20051;-71
2022/01/30 10:40:19;;;;;;;27.15;4.72;;;;;;;6.21;69.25;102968.13;5072363;28;20029;-71
2022/01/30 10:42:47;;;;;;;31.70;5.50;;;;;;;6.27;68.27;102966.69;5071030;28;20031;-71
2022/01/30 10:45:13;;;;;;;27.10;5.07;;;;;;;6.34;68.71;102962.41;5071942;28;20048;-72
2022/01/30 10:47:40;;;;;;;25.83;4.50;;;;;;;6.38;68.97;102964.66;5072261;28;20029;-71
2022/01/30 10:50:10;;;;;;;31.17;5.30;;;;;;;6.45;69.67;102961.44;5072036;28;20032;-72
2022/01/30 10:52:53;;;;;;;30.03;4.50;;;;;;;6.57;68.84;102966.47;5072239;28;20032;-71
2022/01/30 10:55:33;;;;;;;30.85;4.88;;;;;;;6.60;69.69;102957.28;5070588;28;20281;-72
2022/01/30 10:58:00;;;;;;;26.20;4.90;;;;;;;6.59;67.85;102968.19;5072134;28;20031;-72
2022/01/30 11:00:36;;;;;;;31.38;5.70;;;;;;;6.59;67.51;102965.50;5068696;28;20048;-72
2022/01/30 11:03:02;;;;;;;31.88;5.40;;;;;;;6.60;65.41;102967.16;5072107;28;20033;-71
2022/01/30 11:05:27;;;;;;;26.50;5.03;;;;;;;6.57;65.94;102958.41;5071544;28;20040;-71
2022/01/30 11:07:52;;;;;;;33.47;5.55;;;;;;;6.53;65.22;102951.63;5072110;28;20130;-71
2022/01/30 11:10:24;;;;;;;26.33;4.97;;;;;;;6.52;66.45;102946.38;5072061;28;20082;-71
2022/01/30 11:13:07;;;;;;;26.80;5.63;;;;;;;6.51;66.39;102940.16;5071771;28;20103;-71
2022/01/30 11:15:37;;;;;;;30.02;4.90;;;;;;;6.48;66.89;102940.47;5071869;28;20021;-72
2022/01/30 11:18:04;;;;;;;30.42;5.65;;;;;;;6.47;66.52;102936.06;5070767;28;20102;-72
2022/01/30 11:20:34;;;;;;;31.23;5.20;;;;;;;6.52;66.09;102928.41;5071364;28;20025;-71
2022/01/30 11:23:02;;;;;;;29.50;5.28;;;;;;;6.51;64.94;102926.72;5071874;28;20025;-72
2022/01/30 11:25:33;;;;;;;30.10;5.20;;;;;;;6.49;64.82;102928.72;5071663;28;20032;-71
2022/01/30 11:28:02;;;;;;;28.15;5.05;;;;;;;6.51;64.26;102945.53;5070589;28;20035;-71
2022/01/30 11:30:28;;;;;;;30.33;5.35;;;;;;;6.52;65.73;102925.72;5071555;28;20541;-71
2022/01/30 11:32:54;;;;;;;25.98;4.60;;;;;;;6.53;63.02;102930.09;5071829;28;20029;-72
2022/01/30 11:35:19;;;;;;;30.80;4.95;;;;;;;6.51;63.94;102921.34;5071588;28;20051;-71
2022/01/30 11:37:45;;;;;;;30.40;4.90;;;;;;;6.57;63.76;102931.50;5073484;28;20028;-71
2022/01/30 11:40:15;;;;;;;28.13;4.90;;;;;;;6.55;64.59;102927.25;5074777;28;20035;-72
2022/01/30 11:42:48;;;;;;;28.23;4.85;;;;;;;6.52;63.44;102928.41;5075230;28;20063;-71
2022/01/30 11:45:20;;;;;;;26.08;4.35;;;;;;;6.54;63.45;102925.59;5075012;28;20107;-72
2022/01/30 11:47:51;;;;;;;30.40;4.68;;;;;;;6.53;63.45;102918.50;5075231;28;20079;-72
2022/01/30 11:50:24;;;;;;;26.20;4.80;;;;;;;6.56;63.28;102913.66;5074821;28;20064;-71
2022/01/30 11:53:04;;;;;;;29.27;4.97;;;;;;;6.59;63.24;102914.38;5075024;28;20031;-71
2022/01/30 11:55:49;;;;;;;24.52;4.95;;;;;;;6.71;64.53;102911.34;5074769;28;20446;-71
2022/01/30 11:58:30;;;;;;;26.85;4.57;;;;;;;6.73;63.66;102912.06;5074552;28;20031;-71
2022/01/30 12:00:57;;;;;;;25.77;4.85;;;;;;;6.79;63.08;102915.97;5072450;28;20043;-71
2022/01/30 12:03:29;;;;;;;26.40;4.45;;;;;;;6.80;63.69;102920.38;5074892;28;20422;-72
2022/01/30 12:06:20;;;;;;;27.33;4.60;;;;;;;6.87;65.68;102915.22;5075128;28;20032;-71
2022/01/30 12:08:46;;;;;;;28.65;4.70;;;;;;;6.91;63.86;102914.81;5074454;28;20506;-71
2022/01/30 12:11:47;;;;;;;26.83;4.85;;;;;;;6.98;65.43;102924.97;5074957;28;20452;-71
2022/01/30 12:14:21;;;;;;;30.85;4.30;;;;;;;6.92;62.46;102910.25;5074525;28;20032;-71
2022/01/30 12:16:57;;;;;;;29.17;5.22;;;;;;;6.86;62.81;102914.38;5074601;28;20024;-72